Anch, Alaska
Current Conditions -  °F | °C
As of 11:58 AM on Tuesday 25 Nov 2014 (Local Time) from PAED Reporting Station
Broken Clouds Broken Clouds  
Wind Chill: 26°   Ceiling: 3700
Heat Index: 32°   Visibility: 10mi
Dew Point: 30°   Wind: 6mph
Humidity: 93%   Direction: 120°ESE
Pressure: 30.22"   Gusts: NA
Location:  61.2265°N, 149.62°W
Report Text: PAED 252058Z 12005KT 10SM FEW008 BKN037 00/M01 A3022 RMK AO2A SLP231 52028
Loading
Personal Weather Stations






























Interactive Weather Map New forecast layout! Learn more

10-Day Weather Forecast

Advertisements
Track Severe Weather on mobile